Time;durP1;ratioP1;P1;durP2;ratioP2;P2;SDS_P1;SDS_P2;PMS_P1;PMS_P2;Temp;Humidity;BMP_temperature;BMP_pressure;BME280_temperature;BME280_humidity;BME280_pressure;Samples;Min_cycle;Max_cycle;Signal;HPM_P1;HPM_P2
2023/01/01 00:01:41;;;;;;;;;15.60;14.20;;;;;;;;5155917;28;8798;-74
2023/01/01 00:04:14;;;;;;;;;12.80;12.20;;;;;;;;5172406;28;8801;-74
2023/01/01 00:06:45;;;;;;;;;27.60;24.20;;;;;;;;5175901;28;8810;-75
2023/01/01 00:12:06;;;;;;;;;25.20;25.20;;;;;;;;5188276;28;8759;-74
2023/01/01 00:14:38;;;;;;;;;23.40;20.20;;;;;;;;5171643;28;8806;-73
2023/01/01 00:17:09;;;;;;;;;18.00;18.00;;;;;;;;5169598;28;8827;-74
2023/01/01 00:19:40;;;;;;;;;19.00;18.80;;;;;;;;5171249;28;8774;-74
2023/01/01 00:22:12;;;;;;;;;13.20;12.80;;;;;;;;5205355;28;8801;-74
2023/01/01 00:24:43;;;;;;;;;16.80;16.80;;;;;;;;5187359;28;8894;-75
2023/01/01 00:27:14;;;;;;;;;18.00;18.00;;;;;;;;5188220;28;8797;-74
2023/01/01 00:29:45;;;;;;;;;10.40;9.20;;;;;;;;5171407;28;8850;-74
2023/01/01 00:32:16;;;;;;;;;23.80;23.80;;;;;;;;5187204;28;8789;-74
2023/01/01 00:34:47;;;;;;;;;25.80;25.40;;;;;;;;5172109;28;8819;-74
2023/01/01 00:37:18;;;;;;;;;27.80;26.60;;;;;;;;5207944;28;8899;-74
2023/01/01 00:39:49;;;;;;;;;17.20;12.60;;;;;;;;5191779;28;8807;-75
2023/01/01 00:42:20;;;;;;;;;33.80;31.80;;;;;;;;5175358;28;8785;-75
2023/01/01 00:44:51;;;;;;;;;28.40;20.40;;;;;;;;5209336;28;8844;-76
2023/01/01 00:47:22;;;;;;;;;42.50;40.75;;;;;;;;5191634;28;8855;-74
2023/01/01 00:49:53;;;;;;;;;58.60;48.40;;;;;;;;5174750;28;10307;-75
2023/01/01 00:52:24;;;;;;;;;78.80;61.80;;;;;;;;5192075;28;8793;-74
2023/01/01 00:54:55;;;;;;;;;49.00;45.00;;;;;;;;5208760;28;8805;-75
2023/01/01 00:57:26;;;;;;;;;30.60;28.40;;;;;;;;5191048;28;11502;-75
2023/01/01 00:59:57;;;;;;;;;34.00;31.20;;;;;;;;5191621;28;8781;-76
2023/01/01 01:02:28;;;;;;;;;21.25;21.00;;;;;;;;5209214;28;8789;-76
2023/01/01 01:05:02;;;;;;;;;21.80;21.80;;;;;;;;5207932;28;9202;-76
2023/01/01 01:07:37;;;;;;;;;9.20;9.20;;;;;;;;5191154;28;8915;-75
2023/01/01 01:10:09;;;;;;;;;24.60;24.20;;;;;;;;5192946;28;8785;-75
2023/01/01 01:12:40;;;;;;;;;14.20;10.60;;;;;;;;5193178;28;8797;-75
2023/01/01 01:15:11;;;;;;;;;14.80;13.20;;;;;;;;5191138;28;8828;-75
2023/01/01 01:17:42;;;;;;;;;21.20;18.60;;;;;;;;5208018;28;8769;-74
2023/01/01 01:20:13;;;;;;;;;23.20;22.80;;;;;;;;5191116;28;8792;-74
2023/01/01 01:22:44;;;;;;;;;24.60;24.20;;;;;;;;5191087;28;8942;-75
2023/01/01 01:25:15;;;;;;;;;12.00;11.20;;;;;;;;5190567;28;8851;-73
2023/01/01 01:27:46;;;;;;;;;24.80;24.00;;;;;;;;5174706;28;8777;-74
2023/01/01 01:30:17;;;;;;;;;19.80;19.80;;;;;;;;5190583;28;8819;-74
2023/01/01 01:32:49;;;;;;;;;21.60;21.60;;;;;;;;5190627;28;8790;-73
2023/01/01 01:35:20;;;;;;;;;16.00;14.60;;;;;;;;5190834;28;8796;-72
2023/01/01 01:37:51;;;;;;;;;28.20;25.80;;;;;;;;5190358;28;8765;-73
2023/01/01 01:40:22;;;;;;;;;31.80;28.60;;;;;;;;5206644;28;8878;-74
2023/01/01 01:42:53;;;;;;;;;17.00;16.00;;;;;;;;5207998;28;8797;-71
2023/01/01 01:45:42;;;;;;;;;16.20;16.20;;;;;;;;5207422;28;11538;-74
2023/01/01 01:48:13;;;;;;;;;19.00;15.25;;;;;;;;5222165;28;8789;-73
2023/01/01 01:51:04;;;;;;;;;25.20;21.40;;;;;;;;5206551;28;10380;-74
2023/01/01 01:53:38;;;;;;;;;21.80;20.20;;;;;;;;5190242;28;8871;-74
2023/01/01 01:56:11;;;;;;;;;21.20;19.80;;;;;;;;5190168;28;8905;-74
2023/01/01 01:58:42;;;;;;;;;13.20;13.20;;;;;;;;5206242;28;8804;-73
2023/01/01 02:01:13;;;;;;;;;30.40;28.80;;;;;;;;5205981;28;8870;-73
2023/01/01 02:04:04;;;;;;;;;21.80;21.80;;;;;;;;5192587;28;8757;-73
2023/01/01 02:06:37;;;;;;;;;26.40;26.40;;;;;;;;5173669;28;9608;-75
2023/01/01 02:09:08;;;;;;;;;42.60;40.60;;;;;;;;5190117;28;8788;-74
2023/01/01 02:11:58;;;;;;;;;68.20;53.20;;;;;;;;5192930;28;8843;-74
2023/01/01 02:14:29;;;;;;;;;55.80;44.60;;;;;;;;5206195;28;8812;-74
2023/01/01 02:17:21;;;;;;;;;56.20;46.60;;;;;;;;5205904;28;8901;-73
2023/01/01 02:20:08;;;;;;;;;50.00;45.00;;;;;;;;5206028;28;8838;-73
2023/01/01 02:22:58;;;;;;;;;40.20;34.80;;;;;;;;5207425;28;8780;-74
2023/01/01 02:25:47;;;;;;;;;37.80;35.80;;;;;;;;5206427;28;8810;-73
2023/01/01 02:28:23;;;;;;;;;35.00;26.40;;;;;;;;5205946;28;9455;-73
2023/01/01 02:30:55;;;;;;;;;37.40;34.00;;;;;;;;5206094;28;8791;-73
2023/01/01 02:33:28;;;;;;;;;33.20;30.20;;;;;;;;5205530;28;8789;-72
2023/01/01 02:36:01;;;;;;;;;31.00;31.00;;;;;;;;5189168;28;8800;-73
2023/01/01 02:38:36;;;;;;;;;27.20;26.60;;;;;;;;5173387;28;8887;-73
2023/01/01 02:41:31;;;;;;;;;19.00;16.40;;;;;;;;5205611;28;9490;-74
2023/01/01 02:44:03;;;;;;;;;17.60;17.20;;;;;;;;5189642;28;8898;-74
2023/01/01 02:46:34;;;;;;;;;30.40;29.20;;;;;;;;5179199;28;8842;-74
2023/01/01 02:49:05;;;;;;;;;27.40;24.20;;;;;;;;5213603;28;8776;-74
2023/01/01 02:51:56;;;;;;;;;33.40;29.80;;;;;;;;5196293;28;8825;-74
2023/01/01 02:54:46;;;;;;;;;35.60;32.60;;;;;;;;5205878;28;8789;-73
2023/01/01 02:57:26;;;;;;;;;21.60;21.40;;;;;;;;5188993;28;8788;-73
2023/01/01 03:03:15;;;;;;;;;27.00;24.00;;;;;;;;5205311;28;8788;-73
2023/01/01 03:08:58;;;;;;;;;43.80;42.00;;;;;;;;5206245;28;8788;-72
2023/01/01 03:11:33;;;;;;;;;43.80;43.40;;;;;;;;5205384;28;8764;-71
2023/01/01 03:14:05;;;;;;;;;36.00;36.00;;;;;;;;5188412;28;8792;-74
2023/01/01 03:16:59;;;;;;;;;53.60;48.00;;;;;;;;5204995;28;8886;-74
2023/01/01 03:19:34;;;;;;;;;40.20;36.60;;;;;;;;5206292;28;8799;-74
2023/01/01 03:22:10;;;;;;;;;31.60;30.40;;;;;;;;5192976;28;8784;-73
2023/01/01 03:24:45;;;;;;;;;29.40;23.20;;;;;;;;5190661;28;9523;-72
2023/01/01 03:27:18;;;;;;;;;37.20;35.60;;;;;;;;5188062;28;8788;-72
2023/01/01 03:29:55;;;;;;;;;46.20;43.00;;;;;;;;5171753;28;8790;-72
2023/01/01 03:33:16;;;;;;;;;40.00;38.40;;;;;;;;5205583;28;8796;-73
2023/01/01 03:35:24;;;;;;;;;31.00;31.00;;;;;;;;5197525;28;8804;-73
2023/01/01 03:37:57;;;;;;;;;30.00;29.20;;;;;;;;5188085;28;8811;-73
2023/01/01 03:40:30;;;;;;;;;21.40;19.80;;;;;;;;5188415;28;8811;-73
2023/01/01 03:43:11;;;;;;;;;17.20;17.20;;;;;;;;5204389;28;8777;-73
2023/01/01 03:45:43;;;;;;;;;23.60;23.60;;;;;;;;5204805;28;8824;-72
2023/01/01 03:48:15;;;;;;;;;25.20;23.60;;;;;;;;5204331;28;8911;-73
2023/01/01 03:50:53;;;;;;;;;24.40;24.40;;;;;;;;5188092;28;8776;-75
2023/01/01 03:53:38;;;;;;;;;16.40;15.60;;;;;;;;5205906;28;8787;-75
2023/01/01 03:56:09;;;;;;;;;20.60;19.80;;;;;;;;5188139;28;8785;-73
2023/01/01 03:58:44;;;;;;;;;15.50;13.50;;;;;;;;5204259;28;8816;-77
2023/01/01 04:01:19;;;;;;;;;15.20;15.20;;;;;;;;5188284;28;11576;-76
2023/01/01 04:03:50;;;;;;;;;19.40;19.40;;;;;;;;5204121;28;8922;-76
2023/01/01 04:06:21;;;;;;;;;26.40;24.20;;;;;;;;5205698;28;8808;-77
2023/01/01 04:08:56;;;;;;;;;49.80;44.60;;;;;;;;5187976;28;8808;-76
2023/01/01 04:14:45;;;;;;;;;28.00;28.00;;;;;;;;5204842;28;8796;-77
2023/01/01 04:17:17;;;;;;;;;27.20;27.20;;;;;;;;5201768;28;8829;-75
2023/01/01 04:19:48;;;;;;;;;11.80;8.80;;;;;;;;5171395;28;8788;-76
2023/01/01 04:22:37;;;;;;;;;30.60;29.80;;;;;;;;5205006;28;8777;-75
2023/01/01 04:25:08;;;;;;;;;20.80;20.20;;;;;;;;5205868;28;8846;-77
2023/01/01 04:27:40;;;;;;;;;24.00;20.20;;;;;;;;5204365;28;8792;-74
2023/01/01 04:30:11;;;;;;;;;14.60;14.20;;;;;;;;5204540;28;8784;-74
2023/01/01 04:32:42;;;;;;;;;18.40;18.00;;;;;;;;5205798;28;8816;-75
2023/01/01 04:35:14;;;;;;;;;18.40;18.40;;;;;;;;5204039;28;8784;-74
2023/01/01 04:37:45;;;;;;;;;15.00;15.00;;;;;;;;5203744;28;8796;-75
2023/01/01 04:40:34;;;;;;;;;15.20;14.20;;;;;;;;5205870;28;8803;-75
2023/01/01 04:43:24;;;;;;;;;17.00;17.00;;;;;;;;5205297;28;8768;-75
2023/01/01 04:45:56;;;;;;;;;15.00;14.60;;;;;;;;5204453;28;8819;-77
2023/01/01 04:48:28;;;;;;;;;19.20;17.20;;;;;;;;5203700;28;8811;-75
2023/01/01 04:51:05;;;;;;;;;22.80;20.60;;;;;;;;5204695;28;8800;-75
2023/01/01 04:53:37;;;;;;;;;32.20;30.00;;;;;;;;5203802;28;8850;-75
2023/01/01 04:56:08;;;;;;;;;31.80;29.20;;;;;;;;5203651;28;8780;-74
2023/01/01 04:58:40;;;;;;;;;40.60;38.80;;;;;;;;5187837;28;8780;-78
2023/01/01 05:01:15;;;;;;;;;29.80;26.20;;;;;;;;5188348;28;8772;-78
2023/01/01 05:03:47;;;;;;;;;25.20;24.60;;;;;;;;5188195;28;8792;-76
2023/01/01 05:06:18;;;;;;;;;31.20;30.40;;;;;;;;5186993;28;8839;-75
2023/01/01 05:09:08;;;;;;;;;19.80;19.20;;;;;;;;5203726;28;8769;-75
2023/01/01 05:11:39;;;;;;;;;27.80;25.20;;;;;;;;5170903;28;8858;-74
2023/01/01 05:14:10;;;;;;;;;17.80;17.00;;;;;;;;5220602;28;9523;-77
2023/01/01 05:16:59;;;;;;;;;27.60;26.00;;;;;;;;5190053;28;9574;-78
2023/01/01 05:19:30;;;;;;;;;23.00;22.50;;;;;;;;5190617;28;8784;-71
2023/01/01 05:22:02;;;;;;;;;26.80;24.60;;;;;;;;5205986;28;11521;-69
2023/01/01 05:24:35;;;;;;;;;17.20;17.20;;;;;;;;5207153;28;8780;-69
2023/01/01 05:27:06;;;;;;;;;29.60;26.80;;;;;;;;5206930;28;8815;-69
2023/01/01 05:29:56;;;;;;;;;13.00;12.80;;;;;;;;5208306;28;9486;-69
2023/01/01 05:32:45;;;;;;;;;21.40;20.40;;;;;;;;5208074;28;8780;-70
2023/01/01 05:39:40;;;;;;;;;51.20;46.60;;;;;;;;5207908;28;8717;-69
2023/01/01 05:42:11;;;;;;;;;51.00;43.25;;;;;;;;5207697;28;8850;-69
2023/01/01 05:44:41;;;;;;;;;47.75;39.50;;;;;;;;5190156;28;11574;-69
2023/01/01 05:47:14;;;;;;;;;11.00;10.50;;;;;;;;5208156;28;11540;-69
2023/01/01 05:50:03;;;;;;;;;27.40;27.40;;;;;;;;5206987;28;11521;-69
2023/01/01 05:57:03;;;;;;;;;117.67;94.00;;;;;;;;5207596;28;8729;-70
2023/01/01 05:59:34;;;;;;;;;45.60;42.40;;;;;;;;5206583;28;9276;-69
2023/01/01 06:02:05;;;;;;;;;34.80;33.40;;;;;;;;5174119;28;8798;-68
2023/01/01 06:04:36;;;;;;;;;30.67;30.67;;;;;;;;5206381;28;8784;-68
2023/01/01 06:07:07;;;;;;;;;24.20;22.60;;;;;;;;5205672;28;12355;-68
2023/01/01 06:09:38;;;;;;;;;35.00;34.75;;;;;;;;5207358;28;8827;-69
2023/01/01 06:21:09;;;;;;;;;35.80;33.20;;;;;;;;5207120;28;8728;-68
2023/01/01 06:23:41;;;;;;;;;39.40;34.00;;;;;;;;5206300;28;8777;-68
2023/01/01 06:26:16;;;;;;;;;36.40;32.40;;;;;;;;5189748;28;8842;-69
2023/01/01 06:28:47;;;;;;;;;36.00;36.00;;;;;;;;5190060;28;8780;-71
2023/01/01 06:35:41;;;;;;;;;62.60;47.80;;;;;;;;5207092;28;8701;-70
2023/01/01 06:38:12;;;;;;;;;41.50;39.00;;;;;;;;5190937;28;8808;-70
2023/01/01 06:40:43;;;;;;;;;31.00;30.25;;;;;;;;5173806;28;8800;-69
2023/01/01 06:43:33;;;;;;;;;23.00;20.80;;;;;;;;5222851;28;8899;-69
2023/01/01 06:46:05;;;;;;;;;24.00;21.60;;;;;;;;5172052;28;8804;-69
2023/01/01 06:52:59;;;;;;;;;20.60;20.60;;;;;;;;5206439;28;8720;-68
2023/01/01 06:55:30;;;;;;;;;35.00;31.50;;;;;;;;5205479;28;8789;-68
2023/01/01 06:58:08;;;;;;;;;27.60;25.00;;;;;;;;5205108;28;8834;-68
2023/01/01 07:00:45;;;;;;;;;13.20;13.20;;;;;;;;5205354;28;8769;-69
2023/01/01 07:03:19;;;;;;;;;25.60;24.60;;;;;;;;5172381;28;8769;-69
2023/01/01 07:06:09;;;;;;;;;14.20;13.80;;;;;;;;5206223;28;8816;-68
2023/01/01 07:08:40;;;;;;;;;19.80;19.00;;;;;;;;5205262;28;8803;-69
2023/01/01 07:11:29;;;;;;;;;26.60;25.80;;;;;;;;5206905;28;8788;-69
2023/01/01 07:14:01;;;;;;;;;32.40;30.80;;;;;;;;5188527;28;9503;-69
2023/01/01 07:16:34;;;;;;;;;23.00;20.80;;;;;;;;5188499;28;8830;-68
2023/01/01 07:19:05;;;;;;;;;37.80;33.60;;;;;;;;5204593;28;8788;-68
2023/01/01 07:21:42;;;;;;;;;31.20;30.00;;;;;;;;5172090;28;8914;-69
2023/01/01 07:24:14;;;;;;;;;25.40;24.60;;;;;;;;5205283;28;8823;-68
2023/01/01 07:27:03;;;;;;;;;24.80;24.40;;;;;;;;5206387;28;8812;-69
2023/01/01 07:29:34;;;;;;;;;30.25;26.75;;;;;;;;5204749;28;8799;-69
2023/01/01 07:32:05;;;;;;;;;20.50;18.50;;;;;;;;5188136;28;9547;-70
2023/01/01 07:34:36;;;;;;;;;24.20;20.60;;;;;;;;5205005;28;8803;-69
2023/01/01 07:37:10;;;;;;;;;24.40;23.20;;;;;;;;5188345;28;9485;-70
2023/01/01 07:40:00;;;;;;;;;51.20;40.40;;;;;;;;5205340;28;8870;-69
2023/01/01 07:42:35;;;;;;;;;21.00;18.20;;;;;;;;5188546;28;8807;-70
2023/01/01 07:45:11;;;;;;;;;26.20;23.20;;;;;;;;5187429;28;8857;-69
2023/01/01 07:47:49;;;;;;;;;30.60;29.40;;;;;;;;5188829;28;8808;-69
2023/01/01 07:50:20;;;;;;;;;19.00;16.80;;;;;;;;5172214;28;8788;-70
2023/01/01 07:52:51;;;;;;;;;32.40;26.40;;;;;;;;5188288;28;8792;-70
2023/01/01 07:55:23;;;;;;;;;24.40;22.60;;;;;;;;5171641;28;9538;-68
2023/01/01 07:57:54;;;;;;;;;25.80;24.80;;;;;;;;5206544;28;9700;-68
2023/01/01 08:00:25;;;;;;;;;44.25;36.00;;;;;;;;5204559;28;8918;-69
2023/01/01 08:02:57;;;;;;;;;47.20;44.80;;;;;;;;5205628;28;11554;-71
2023/01/01 08:05:28;;;;;;;;;34.60;32.60;;;;;;;;5206046;28;8808;-67
2023/01/01 08:07:59;;;;;;;;;18.60;18.60;;;;;;;;5203911;28;8785;-69
2023/01/01 08:10:30;;;;;;;;;36.60;34.80;;;;;;;;5187871;28;8811;-69
2023/01/01 08:13:05;;;;;;;;;26.25;23.75;;;;;;;;5187400;28;8785;-69
2023/01/01 08:15:38;;;;;;;;;25.20;21.40;;;;;;;;5203874;28;11607;-69
2023/01/01 08:18:31;;;;;;;;;27.20;27.20;;;;;;;;5205577;28;8780;-68
2023/01/01 08:21:02;;;;;;;;;16.20;16.20;;;;;;;;5204004;28;8792;-68
2023/01/01 08:23:53;;;;;;;;;31.60;29.20;;;;;;;;5204456;28;9440;-68
2023/01/01 08:26:42;;;;;;;;;35.00;33.20;;;;;;;;5205629;28;9494;-67
2023/01/01 08:29:13;;;;;;;;;28.50;26.00;;;;;;;;5203951;28;8824;-68
2023/01/01 08:31:44;;;;;;;;;31.50;31.50;;;;;;;;5187850;28;8831;-68
2023/01/01 08:34:15;;;;;;;;;38.25;37.00;;;;;;;;5187717;28;8788;-67
2023/01/01 08:36:46;;;;;;;;;23.00;22.50;;;;;;;;5203446;28;12228;-69
2023/01/01 08:39:17;;;;;;;;;38.50;36.00;;;;;;;;5203902;28;11792;-68
2023/01/01 08:42:14;;;;;;;;;44.25;41.50;;;;;;;;5203810;28;11417;-69
2023/01/01 08:45:11;;;;;;;;;48.80;45.20;;;;;;;;5205538;28;11219;-69
2023/01/01 08:47:42;;;;;;;;;41.25;36.75;;;;;;;;5187142;28;8788;-69
2023/01/01 08:50:53;;;;;;;;;49.00;43.00;;;;;;;;5193137;28;8824;-69
2023/01/01 08:53:33;;;;;;;;;26.20;26.20;;;;;;;;5204702;28;8785;-69
2023/01/01 08:56:06;;;;;;;;;33.60;26.20;;;;;;;;5188062;28;8800;-69
2023/01/01 08:58:38;;;;;;;;;25.00;23.20;;;;;;;;5208156;28;8780;-68
2023/01/01 09:01:09;;;;;;;;;29.60;27.80;;;;;;;;5208137;28;8926;-69
2023/01/01 09:03:40;;;;;;;;;23.60;22.00;;;;;;;;5207488;28;8784;-69
2023/01/01 09:06:11;;;;;;;;;39.50;34.75;;;;;;;;5207597;28;8938;-69
2023/01/01 09:08:42;;;;;;;;;27.20;27.20;;;;;;;;5177178;28;11490;-69
2023/01/01 09:11:19;;;;;;;;;37.40;34.80;;;;;;;;5216418;28;8812;-70
2023/01/01 09:14:08;;;;;;;;;19.80;18.60;;;;;;;;5217628;28;8796;-70
2023/01/01 09:16:39;;;;;;;;;30.50;28.25;;;;;;;;5217568;28;8878;-69
2023/01/01 09:19:10;;;;;;;;;24.80;24.80;;;;;;;;5209215;28;11528;-69
2023/01/01 09:21:41;;;;;;;;;32.00;31.75;;;;;;;;5208321;28;9468;-69
2023/01/01 09:24:30;;;;;;;;;33.40;30.60;;;;;;;;5207927;28;9649;-69
2023/01/01 09:27:01;;;;;;;;;29.80;29.80;;;;;;;;5206930;28;8834;-70
2023/01/01 09:29:51;;;;;;;;;31.40;31.00;;;;;;;;5207866;28;9472;-69
2023/01/01 09:32:22;;;;;;;;;28.00;26.50;;;;;;;;5207378;28;8784;-70
2023/01/01 09:34:54;;;;;;;;;32.80;29.20;;;;;;;;5190420;28;11536;-70
2023/01/01 09:37:25;;;;;;;;;23.40;21.60;;;;;;;;5190294;28;8784;-70
2023/01/01 09:39:56;;;;;;;;;30.00;28.00;;;;;;;;5206915;28;8764;-70
2023/01/01 09:42:48;;;;;;;;;34.20;30.80;;;;;;;;5206850;28;9538;-70
2023/01/01 09:45:24;;;;;;;;;27.60;27.00;;;;;;;;5206801;28;9515;-68
2023/01/01 09:47:58;;;;;;;;;17.20;14.20;;;;;;;;5190468;28;8776;-69
2023/01/01 09:50:33;;;;;;;;;31.00;24.60;;;;;;;;5174283;28;8797;-68
2023/01/01 09:53:23;;;;;;;;;40.80;38.60;;;;;;;;5191382;28;8822;-68
2023/01/01 09:55:56;;;;;;;;;38.00;36.20;;;;;;;;5207147;28;8811;-69
2023/01/01 09:58:30;;;;;;;;;26.80;26.80;;;;;;;;5174027;28;8792;-69
2023/01/01 10:01:20;;;;;;;;;25.20;24.20;;;;;;;;5206532;28;8796;-69
2023/01/01 10:04:01;;;;;;;;;14.20;14.20;;;;;;;;5206991;28;8819;-69
2023/01/01 10:06:34;;;;;;;;;25.00;25.00;;;;;;;;5189568;28;8804;-69
2023/01/01 10:09:23;;;;;;;;;28.60;27.00;;;;;;;;5205691;28;8811;-67
2023/01/01 10:12:10;;;;;;;;;26.00;25.80;;;;;;;;5207920;28;8953;-68
2023/01/01 10:14:45;;;;;;;;;33.20;27.00;;;;;;;;5206251;28;8873;-69
2023/01/01 10:17:33;;;;;;;;;29.20;26.60;;;;;;;;5190104;28;8836;-69
2023/01/01 10:20:17;;;;;;;;;23.40;21.60;;;;;;;;5206717;28;8792;-70
2023/01/01 10:22:51;;;;;;;;;30.20;29.60;;;;;;;;5173660;28;8780;-69
2023/01/01 10:25:29;;;;;;;;;25.00;24.00;;;;;;;;5206849;28;8820;-69
2023/01/01 10:28:05;;;;;;;;;33.60;31.60;;;;;;;;5207547;28;8788;-69
2023/01/01 10:30:36;;;;;;;;;36.60;33.20;;;;;;;;5206263;28;8777;-69
2023/01/01 10:33:11;;;;;;;;;41.50;39.75;;;;;;;;5207303;28;8792;-68
2023/01/01 10:35:46;;;;;;;;;42.20;39.80;;;;;;;;5205547;28;9222;-69
2023/01/01 10:38:21;;;;;;;;;31.80;30.00;;;;;;;;5207571;28;8808;-69
2023/01/01 10:40:55;;;;;;;;;75.80;57.20;;;;;;;;5189833;28;8773;-69
2023/01/01 10:43:26;;;;;;;;;42.20;39.60;;;;;;;;5205671;28;8777;-69
2023/01/01 10:46:17;;;;;;;;;34.20;29.20;;;;;;;;5206189;28;8997;-68
2023/01/01 10:49:10;;;;;;;;;19.00;18.00;;;;;;;;5190605;28;9537;-69
2023/01/01 10:51:46;;;;;;;;;24.00;21.40;;;;;;;;5206588;28;8757;-68
2023/01/01 10:54:23;;;;;;;;;24.00;24.00;;;;;;;;5205775;28;8780;-69
2023/01/01 10:56:53;;;;;;;;;29.20;27.80;;;;;;;;5207304;28;8838;-69
2023/01/01 10:59:33;;;;;;;;;32.80;30.80;;;;;;;;5206779;28;8780;-69
2023/01/01 11:02:27;;;;;;;;;32.60;28.00;;;;;;;;5205309;28;8795;-69
2023/01/01 11:05:12;;;;;;;;;15.40;14.60;;;;;;;;5181326;28;9488;-69
2023/01/01 11:07:43;;;;;;;;;58.00;48.40;;;;;;;;5189159;28;8785;-69
2023/01/01 11:10:19;;;;;;;;;32.20;30.40;;;;;;;;5188996;28;9322;-69
2023/01/01 11:12:52;;;;;;;;;22.40;22.40;;;;;;;;5222235;28;9558;-69
2023/01/01 11:15:40;;;;;;;;;30.20;25.60;;;;;;;;5205143;28;8831;-69
2023/01/01 11:18:11;;;;;;;;;22.00;21.80;;;;;;;;5205320;28;8792;-69
2023/01/01 11:20:42;;;;;;;;;30.50;30.25;;;;;;;;5205852;28;8788;-69
2023/01/01 11:23:39;;;;;;;;;28.20;25.00;;;;;;;;5205230;28;11467;-69
2023/01/01 11:26:17;;;;;;;;;31.40;28.80;;;;;;;;5200896;28;8807;-69
2023/01/01 11:28:58;;;;;;;;;37.40;32.60;;;;;;;;5188978;28;8899;-69
2023/01/01 11:31:34;;;;;;;;;36.20;33.40;;;;;;;;5204955;28;8784;-69
2023/01/01 11:34:19;;;;;;;;;34.00;29.60;;;;;;;;5205278;28;8838;-71
2023/01/01 11:36:50;;;;;;;;;31.40;30.60;;;;;;;;5172202;28;8764;-69
2023/01/01 11:39:25;;;;;;;;;30.40;28.80;;;;;;;;5204420;28;8924;-68
2023/01/01 11:41:57;;;;;;;;;33.00;30.40;;;;;;;;5205598;28;8788;-68
2023/01/01 11:44:39;;;;;;;;;26.40;23.60;;;;;;;;5204281;28;8799;-69
2023/01/01 11:47:22;;;;;;;;;43.40;39.20;;;;;;;;5188174;28;8827;-69
2023/01/01 11:50:14;;;;;;;;;48.80;45.00;;;;;;;;5204828;28;8804;-68
2023/01/01 11:53:17;;;;;;;;;35.20;34.20;;;;;;;;5200585;28;8800;-69
2023/01/01 11:55:53;;;;;;;;;23.60;21.60;;;;;;;;5188172;28;8796;-69
2023/01/01 11:58:39;;;;;;;;;69.80;56.80;;;;;;;;5188543;28;9541;-69
2023/01/01 12:01:16;;;;;;;;;28.80;24.60;;;;;;;;5188137;28;8817;-68
2023/01/01 12:03:57;;;;;;;;;19.60;19.60;;;;;;;;5204190;28;8804;-69
2023/01/01 12:06:29;;;;;;;;;18.40;18.40;;;;;;;;5204115;28;8839;-69
2023/01/01 12:09:06;;;;;;;;;19.00;16.00;;;;;;;;5205214;28;8922;-69
2023/01/01 12:11:40;;;;;;;;;24.60;24.40;;;;;;;;5188005;28;8776;-69
2023/01/01 12:14:35;;;;;;;;;30.00;27.40;;;;;;;;5204182;28;8800;-69
2023/01/01 12:17:15;;;;;;;;;29.60;29.60;;;;;;;;5204136;28;8824;-69
2023/01/01 12:19:52;;;;;;;;;27.00;22.00;;;;;;;;5205757;28;8879;-69
2023/01/01 12:22:24;;;;;;;;;36.60;34.80;;;;;;;;5204458;28;8838;-69
2023/01/01 12:24:55;;;;;;;;;31.20;31.20;;;;;;;;5171434;28;8800;-69
2023/01/01 12:27:30;;;;;;;;;39.60;35.40;;;;;;;;5187724;28;9505;-69
2023/01/01 12:30:04;;;;;;;;;53.80;48.80;;;;;;;;5188150;28;8788;-69
2023/01/01 12:32:35;;;;;;;;;15.60;15.20;;;;;;;;5205329;28;8930;-69
2023/01/01 12:35:16;;;;;;;;;25.25;24.75;;;;;;;;5188235;28;8902;-70
2023/01/01 12:37:58;;;;;;;;;19.20;18.40;;;;;;;;5188126;28;9514;-70
2023/01/01 12:40:46;;;;;;;;;21.20;19.60;;;;;;;;5203671;28;8796;-69
2023/01/01 12:43:17;;;;;;;;;27.20;24.80;;;;;;;;5204426;28;8887;-69
2023/01/01 12:45:48;;;;;;;;;46.50;38.50;;;;;;;;5187138;28;8962;-68
2023/01/01 12:48:39;;;;;;;;;41.00;37.20;;;;;;;;5187763;28;8965;-70
2023/01/01 12:51:16;;;;;;;;;30.80;27.80;;;;;;;;5204321;28;8820;-68
2023/01/01 12:53:53;;;;;;;;;13.80;13.40;;;;;;;;5203725;28;8773;-68
2023/01/01 12:56:24;;;;;;;;;27.00;26.20;;;;;;;;5188067;28;8784;-69
2023/01/01 12:59:25;;;;;;;;;26.50;25.25;;;;;;;;5186668;28;9494;-69
2023/01/01 13:01:58;;;;;;;;;25.40;24.00;;;;;;;;5186407;28;8792;-70
2023/01/01 13:04:50;;;;;;;;;25.40;23.60;;;;;;;;5204988;28;8796;-70
2023/01/01 13:07:30;;;;;;;;;14.60;13.80;;;;;;;;5188314;28;8788;-69
2023/01/01 13:10:17;;;;;;;;;18.00;16.00;;;;;;;;5187609;28;8887;-69
2023/01/01 13:13:07;;;;;;;;;27.00;27.00;;;;;;;;5203405;28;8781;-70
2023/01/01 13:15:42;;;;;;;;;19.00;18.80;;;;;;;;5170653;28;9535;-70
2023/01/01 13:18:12;;;;;;;;;26.60;26.60;;;;;;;;5171051;28;8776;-70
2023/01/01 13:20:58;;;;;;;;;29.75;27.25;;;;;;;;5203304;28;8796;-70
2023/01/01 13:23:48;;;;;;;;;31.60;30.00;;;;;;;;5204586;28;9580;-70
2023/01/01 13:26:20;;;;;;;;;37.40;33.80;;;;;;;;5204314;28;8851;-70
2023/01/01 13:28:58;;;;;;;;;27.00;27.00;;;;;;;;5186834;28;8797;-70
2023/01/01 13:31:48;;;;;;;;;21.20;20.00;;;;;;;;5189405;28;8966;-71
2023/01/01 13:34:36;;;;;;;;;23.00;23.00;;;;;;;;5186616;28;8792;-73
2023/01/01 13:37:09;;;;;;;;;10.60;10.60;;;;;;;;5188355;28;8811;-74
2023/01/01 13:39:59;;;;;;;;;24.00;24.00;;;;;;;;5187044;28;8788;-73
2023/01/01 13:43:03;;;;;;;;;25.40;23.20;;;;;;;;5171222;28;11582;-72
2023/01/01 13:45:51;;;;;;;;;22.40;20.60;;;;;;;;5190334;28;9539;-73
2023/01/01 13:48:32;;;;;;;;;25.80;25.80;;;;;;;;5223348;28;8776;-73
2023/01/01 13:51:22;;;;;;;;;17.40;13.60;;;;;;;;5174222;28;8806;-74
2023/01/01 13:54:18;;;;;;;;;24.00;23.60;;;;;;;;5207026;28;8810;-73
2023/01/01 13:56:56;;;;;;;;;23.40;22.00;;;;;;;;5206555;28;8776;-73
2023/01/01 13:59:27;;;;;;;;;21.00;19.80;;;;;;;;5190216;28;8768;-73
2023/01/01 14:02:01;;;;;;;;;15.00;14.80;;;;;;;;5174039;28;8858;-72
2023/01/01 14:04:42;;;;;;;;;23.60;21.60;;;;;;;;5174047;28;8892;-73
2023/01/01 14:07:16;;;;;;;;;15.80;14.00;;;;;;;;5206348;28;8820;-73
2023/01/01 14:09:47;;;;;;;;;17.60;16.80;;;;;;;;5206485;28;8796;-72
2023/01/01 14:12:19;;;;;;;;;28.50;27.50;;;;;;;;5190263;28;9482;-71
2023/01/01 14:14:50;;;;;;;;;22.20;20.40;;;;;;;;5207683;28;12231;-71
2023/01/01 14:17:21;;;;;;;;;30.50;29.75;;;;;;;;5189926;28;8834;-69
2023/01/01 14:19:52;;;;;;;;;30.00;28.00;;;;;;;;5189941;28;10855;-69
2023/01/01 14:22:23;;;;;;;;;30.80;28.60;;;;;;;;5189545;28;8780;-70
2023/01/01 14:24:54;;;;;;;;;21.50;21.50;;;;;;;;5206800;28;8799;-69
2023/01/01 14:27:27;;;;;;;;;23.80;23.80;;;;;;;;5173220;28;8804;-70
2023/01/01 14:29:58;;;;;;;;;11.20;9.60;;;;;;;;5189370;28;8776;-70
2023/01/01 14:32:32;;;;;;;;;21.80;20.40;;;;;;;;5174028;28;8850;-70
2023/01/01 14:35:03;;;;;;;;;27.20;27.20;;;;;;;;5206017;28;8772;-69
2023/01/01 14:37:34;;;;;;;;;26.00;24.40;;;;;;;;5189722;28;8815;-68
2023/01/01 14:40:06;;;;;;;;;26.60;26.60;;;;;;;;5205687;28;8864;-69
2023/01/01 14:42:38;;;;;;;;;18.00;17.60;;;;;;;;5205992;28;8927;-69
2023/01/01 14:45:16;;;;;;;;;32.60;30.80;;;;;;;;5205476;28;8799;-69
2023/01/01 14:47:49;;;;;;;;;42.00;40.60;;;;;;;;5189483;28;8788;-72
2023/01/01 14:50:23;;;;;;;;;60.40;48.20;;;;;;;;5205679;28;8781;-69
2023/01/01 14:52:56;;;;;;;;;41.20;38.00;;;;;;;;5205849;28;8786;-71
2023/01/01 14:55:31;;;;;;;;;26.40;25.20;;;;;;;;5188572;28;8816;-72
2023/01/01 14:58:02;;;;;;;;;28.60;25.80;;;;;;;;5189431;28;8780;-70
2023/01/01 15:00:33;;;;;;;;;21.20;20.60;;;;;;;;5205815;28;8777;-70
2023/01/01 15:03:06;;;;;;;;;24.25;20.75;;;;;;;;5189024;28;8808;-70
2023/01/01 15:05:38;;;;;;;;;31.00;30.00;;;;;;;;5205149;28;9593;-70
2023/01/01 15:08:19;;;;;;;;;23.60;17.80;;;;;;;;5205046;28;8843;-71
2023/01/01 15:10:51;;;;;;;;;21.00;19.80;;;;;;;;5206047;28;8886;-70
2023/01/01 15:13:24;;;;;;;;;25.00;24.80;;;;;;;;5205720;28;9652;-70
2023/01/01 15:16:13;;;;;;;;;30.20;30.00;;;;;;;;5204929;28;8847;-70
2023/01/01 15:18:44;;;;;;;;;38.00;34.60;;;;;;;;5189350;28;8796;-70
2023/01/01 15:21:31;;;;;;;;;48.80;41.80;;;;;;;;5188714;28;8792;-71
2023/01/01 15:24:08;;;;;;;;;33.60;31.60;;;;;;;;5205425;28;8789;-71
2023/01/01 15:26:59;;;;;;;;;28.80;26.40;;;;;;;;5205866;28;9522;-71
2023/01/01 15:29:30;;;;;;;;;21.80;21.80;;;;;;;;5206205;28;8788;-72
2023/01/01 15:32:03;;;;;;;;;26.00;25.00;;;;;;;;5172697;28;8796;-72
2023/01/01 15:34:41;;;;;;;;;27.80;24.40;;;;;;;;5188912;28;8860;-72
2023/01/01 15:37:15;;;;;;;;;20.60;20.60;;;;;;;;5207179;28;8799;-71
2023/01/01 15:39:48;;;;;;;;;25.80;24.80;;;;;;;;5204860;28;8776;-71
2023/01/01 15:42:23;;;;;;;;;26.80;26.80;;;;;;;;5188137;28;8804;-71
2023/01/01 15:44:54;;;;;;;;;22.00;21.60;;;;;;;;5204786;28;9436;-70
2023/01/01 15:47:43;;;;;;;;;21.00;19.80;;;;;;;;5191625;28;9475;-71
2023/01/01 15:54:38;;;;;;;;;26.60;26.40;;;;;;;;5215448;28;8708;-71
2023/01/01 15:57:18;;;;;;;;;22.60;18.00;;;;;;;;5210285;28;9483;-72
2023/01/01 15:59:51;;;;;;;;;31.20;30.00;;;;;;;;5193090;28;8815;-72
2023/01/01 16:02:28;;;;;;;;;35.00;27.00;;;;;;;;5184334;28;8802;-70
2023/01/01 16:09:22;;;;;;;;;34.80;33.20;;;;;;;;5184895;28;8720;-69
2023/01/01 16:16:29;;;;;;;;;34.40;34.00;;;;;;;;5184831;28;8953;-69